Time;durP1;ratioP1;P1;durP2;ratioP2;P2;SDS_P1;SDS_P2;PMS_P1;PMS_P2;Temp;Humidity;BMP_temperature;BMP_pressure;BME280_temperature;BME280_humidity;BME280_pressure;Samples;Min_cycle;Max_cycle;Signal;HPM_P1;HPM_P2
2021/11/16 00:00:13;;;;;;;;;;;;;;;4.31;100.00;102020.22;5071148;28;20021;-73
2021/11/16 00:02:40;;;;;;;;;;;;;;;4.30;100.00;102026.53;5071973;28;19925;-73
2021/11/16 00:05:07;;;;;;;;;;;;;;;4.29;100.00;102020.28;5072042;28;20015;-73
2021/11/16 00:07:33;;;;;;;;;;;;;;;4.30;100.00;102021.13;5070523;28;19935;-74
2021/11/16 00:10:00;;;;;;;;;;;;;;;4.32;100.00;102016.59;5071914;28;20456;-73
2021/11/16 00:12:26;;;;;;;;;;;;;;;4.32;100.00;102021.97;5071748;28;19925;-73
2021/11/16 00:14:54;;;;;;;;;;;;;;;4.31;100.00;102020.22;5070721;28;19936;-73
2021/11/16 00:17:20;;;;;;;;;;;;;;;4.33;100.00;102021.06;5071855;28;19931;-73
2021/11/16 00:19:48;;;;;;;;;;;;;;;4.33;100.00;102021.06;5071747;28;19968;-74
2021/11/16 00:22:18;;;;;;;;;;;;;;;4.34;100.00;102015.63;5071393;28;19924;-73
2021/11/16 00:24:56;;;;;;;;;;;;;;;4.36;100.00;102018.25;5071668;28;19978;-67
2021/11/16 00:27:22;;;;;;;;;;;;;;;4.38;100.00;102027.13;5071781;28;20318;-68
2021/11/16 00:29:49;;;;;;;;;;;;;;;4.38;100.00;102027.13;5071616;28;19960;-67
2021/11/16 00:32:16;;;;;;;;;;;;;;;4.38;100.00;102029.81;5071254;28;20007;-67
2021/11/16 00:34:43;;;;;;;;;;;;;;;4.38;100.00;102037.03;5071801;28;20035;-67
2021/11/16 00:37:09;;;;;;;;;;;;;;;4.38;100.00;102040.56;5071291;28;20024;-67
2021/11/16 00:39:36;;;;;;;;;;;;;;;4.39;100.00;102038.78;5071128;28;19978;-67
2021/11/16 00:42:02;;;;;;;;;;;;;;;4.37;100.00;102036.16;5071262;28;20355;-67
2021/11/16 00:44:28;;;;;;;;;;;;;;;4.39;100.00;102030.72;5071597;28;20019;-66
2021/11/16 00:46:54;;;;;;;;;;;;;;;4.39;100.00;102026.22;5071335;28;20494;-67
2021/11/16 00:49:22;;;;;;;;;;;;;;;4.36;100.00;102029.00;5071183;28;20361;-67
2021/11/16 00:51:48;;;;;;;;;;;;;;;4.38;100.00;102020.88;5070126;28;20300;-67
2021/11/16 00:54:15;;;;;;;;;;;;;;;4.37;100.00;102017.34;5071362;28;19931;-65
2021/11/16 00:56:41;;;;;;;;;;;;;;;4.36;100.00;102018.25;5071556;28;19925;-66
2021/11/16 00:59:07;;;;;;;;;;;;;;;4.35;100.00;102021.88;5070731;28;20465;-66
2021/11/16 01:01:34;;;;;;;;;;;;;;;4.32;100.00;102017.47;5071370;28;20032;-66
2021/11/16 01:04:00;;;;;;;;;;;;;;;4.31;100.00;102007.66;5071295;28;20453;-66
2021/11/16 01:06:28;;;;;;;;;;;;;;;4.30;100.00;102002.31;5070833;28;19924;-65
2021/11/16 01:08:54;;;;;;;;;;;;;;;4.32;100.00;102011.22;5071215;28;20330;-68
2021/11/16 01:11:21;;;;;;;;;;;;;;;4.30;100.00;102008.59;5071055;28;20289;-67
2021/11/16 01:13:48;;;;;;;;;;;;;;;4.32;100.00;102011.22;5071199;28;19934;-68
2021/11/16 01:16:14;;;;;;;;;;;;;;;4.33;100.00;102005.78;5071005;28;20401;-67
2021/11/16 01:18:41;;;;;;;;;;;;;;;4.30;100.00;101996.94;5070589;28;19931;-67
2021/11/16 01:21:07;;;;;;;;;;;;;;;4.30;100.00;102002.31;5071111;28;19960;-67
2021/11/16 01:23:35;;;;;;;;;;;;;;;4.30;100.00;101995.16;5070911;28;20010;-67
2021/11/16 01:26:01;;;;;;;;;;;;;;;4.29;100.00;101992.50;5071155;28;20023;-68
2021/11/16 01:28:29;;;;;;;;;;;;;;;4.31;100.00;101998.72;5070470;28;19924;-67
2021/11/16 01:30:58;;;;;;;;;;;;;;;4.28;100.00;101994.31;5071070;28;20292;-68
2021/11/16 01:33:28;;;;;;;;;;;;;;;4.27;100.00;101980.94;5070998;28;19935;-67
2021/11/16 01:35:55;;;;;;;;;;;;;;;4.21;100.00;101970.38;5070560;28;19928;-67
2021/11/16 01:38:23;;;;;;;;;;;;;;;4.21;100.00;101973.06;5070949;28;20246;-67
2021/11/16 01:40:51;;;;;;;;;;;;;;;4.18;100.00;101976.75;5070510;28;19931;-67
2021/11/16 01:43:18;;;;;;;;;;;;;;;4.18;100.00;101980.31;5077338;28;19924;-67
2021/11/16 01:45:44;;;;;;;;;;;;;;;4.22;100.00;101980.22;5074598;28;19943;-68
2021/11/16 01:48:11;;;;;;;;;;;;;;;4.22;100.00;101983.75;5074498;28;20572;-66
2021/11/16 01:50:39;;;;;;;;;;;;;;;4.23;100.00;101982.84;5074468;28;19931;-65
2021/11/16 01:53:06;;;;;;;;;;;;;;;4.25;100.00;101988.16;5073870;28;20444;-67
2021/11/16 01:55:32;;;;;;;;;;;;;;;4.22;100.00;101975.69;5074585;28;19925;-67
2021/11/16 01:58:00;;;;;;;;;;;;;;;4.19;100.00;101973.13;5074064;28;19924;-67
2021/11/16 02:00:28;;;;;;;;;;;;;;;4.19;100.00;101968.63;5074365;28;19959;-67
2021/11/16 02:02:55;;;;;;;;;;;;;;;4.19;100.00;101970.44;5074174;28;20465;-69
2021/11/16 02:05:34;;;;;;;;;;;;;;;4.17;100.00;101964.25;5074334;28;20421;-67
2021/11/16 02:08:01;;;;;;;;;;;;;;;4.15;100.00;101950.84;5074145;28;20364;-67
2021/11/16 02:10:27;;;;;;;;;;;;;;;4.16;100.00;101954.44;5073612;28;20385;-67
2021/11/16 02:12:53;;;;;;;;;;;;;;;4.16;100.00;101962.50;5074206;28;19929;-67
2021/11/16 02:15:21;;;;;;;;;;;;;;;4.12;100.00;101945.59;5072681;28;20031;-67
2021/11/16 02:17:48;;;;;;;;;;;;;;;4.09;100.00;101951.06;5074241;28;19932;-67
2021/11/16 02:20:16;;;;;;;;;;;;;;;4.12;100.00;101944.72;5073901;28;19930;-67
2021/11/16 02:22:44;;;;;;;;;;;;;;;4.12;100.00;101944.72;5074024;28;19947;-67
2021/11/16 02:25:11;;;;;;;;;;;;;;;4.13;100.00;101944.66;5073984;28;19924;-67
2021/11/16 02:27:37;;;;;;;;;;;;;;;4.13;100.00;101941.97;5073120;28;20028;-66
2021/11/16 02:30:04;;;;;;;;;;;;;;;4.15;100.00;101940.09;5072379;28;20314;-67
2021/11/16 02:32:31;;;;;;;;;;;;;;;4.15;100.00;101934.72;5073596;28;19935;-67
2021/11/16 02:34:57;;;;;;;;;;;;;;;4.10;100.00;101925.97;5073918;28;19940;-67
2021/11/16 02:37:24;;;;;;;;;;;;;;;4.12;100.00;101925.91;5073745;28;20141;-67
2021/11/16 02:39:52;;;;;;;;;;;;;;;4.06;100.00;101926.97;5073416;28;20086;-67
2021/11/16 02:42:20;;;;;;;;;;;;;;;4.04;100.00;101925.31;5073716;28;20022;-67
2021/11/16 02:44:46;;;;;;;;;;;;;;;4.05;100.00;101925.25;5073747;28;20344;-67
2021/11/16 02:47:13;;;;;;;;;;;;;;;3.99;100.00;101925.44;5073207;28;19929;-67
2021/11/16 02:49:41;;;;;;;;;;;;;;;3.99;100.00;101920.94;5073196;28;19960;-67
2021/11/16 02:52:10;;;;;;;;;;;;;;;4.02;100.00;101922.66;5073218;28;19935;-67
2021/11/16 02:54:36;;;;;;;;;;;;;;;3.99;100.00;101920.06;5072629;28;19931;-66
2021/11/16 02:57:07;;;;;;;;;;;;;;;3.96;100.00;101920.19;5073187;28;19952;-67
2021/11/16 02:59:33;;;;;;;;;;;;;;;3.96;100.00;101922.88;5073387;28;20449;-67
2021/11/16 03:02:00;;;;;;;;;;;;;;;3.98;100.00;101927.28;5072997;28;19924;-67
2021/11/16 03:04:27;;;;;;;;;;;;;;;4.03;100.00;101927.09;5073109;28;19924;-68
2021/11/16 03:06:54;;;;;;;;;;;;;;;4.02;100.00;101926.22;5072577;28;19947;-67
2021/11/16 03:09:20;;;;;;;;;;;;;;;4.03;100.00;101916.34;5072976;28;20297;-67
2021/11/16 03:11:48;;;;;;;;;;;;;;;4.06;100.00;101913.53;5073105;28;19925;-67
2021/11/16 03:14:15;;;;;;;;;;;;;;;4.08;100.00;101909.00;5072920;28;20024;-67
2021/11/16 03:16:41;;;;;;;;;;;;;;;4.08;100.00;101909.00;5073126;28;20390;-67
2021/11/16 03:19:08;;;;;;;;;;;;;;;4.08;100.00;101902.75;5072427;28;20019;-67
2021/11/16 03:21:41;;;;;;;;;;;;;;;4.08;100.00;101900.94;5073045;28;20126;-67
2021/11/16 03:24:07;;;;;;;;;;;;;;;4.04;100.00;101888.56;5072456;28;20452;-67
2021/11/16 03:26:33;;;;;;;;;;;;;;;3.99;100.00;101880.63;5072692;28;19928;-67
2021/11/16 03:29:01;;;;;;;;;;;;;;;3.98;100.00;101878.00;5072536;28;20331;-67
2021/11/16 03:31:37;;;;;;;;;;;;;;;3.99;100.00;101879.78;5072457;28;19928;-66
2021/11/16 03:34:04;;;;;;;;;;;;;;;4.02;100.00;101875.16;5072640;28;20309;-65
2021/11/16 03:36:30;;;;;;;;;;;;;;;4.06;100.00;101878.59;5074796;28;20023;-67
2021/11/16 03:38:58;;;;;;;;;;;;;;;4.03;100.00;101884.09;5072368;28;20416;-67
2021/11/16 03:41:24;;;;;;;;;;;;;;;4.02;100.00;101891.28;5072200;28;19971;-66
2021/11/16 03:43:54;;;;;;;;;;;;;;;4.05;100.00;101889.41;5071002;28;20017;-66
2021/11/16 03:46:20;;;;;;;;;;;;;;;4.06;100.00;101886.66;5072403;28;19924;-65
2021/11/16 03:48:48;;;;;;;;;;;;;;;4.02;100.00;101885.03;5071784;28;20028;-67
2021/11/16 03:51:14;;;;;;;;;;;;;;;4.02;100.00;101885.03;5072305;28;20028;-66
2021/11/16 03:53:41;;;;;;;;;;;;;;;4.02;100.00;101887.72;5072282;28;20050;-66
2021/11/16 03:56:08;;;;;;;;;;;;;;;4.04;100.00;101887.69;5072059;28;20475;-66
2021/11/16 03:58:35;;;;;;;;;;;;;;;4.02;100.00;101877.88;5072015;28;20019;-66
2021/11/16 04:01:03;;;;;;;;;;;;;;;4.02;100.00;101871.59;5071463;28;19968;-65
2021/11/16 04:03:31;;;;;;;;;;;;;;;4.00;100.00;101866.28;5072239;28;19966;-66
2021/11/16 04:05:59;;;;;;;;;;;;;;;3.96;100.00;101858.41;5071419;28;19994;-66
2021/11/16 04:08:25;;;;;;;;;;;;;;;3.96;100.00;101853.03;5071917;28;19932;-66
2021/11/16 04:10:52;;;;;;;;;;;;;;;3.96;100.00;101853.03;5071895;28;20082;-66
2021/11/16 04:13:19;;;;;;;;;;;;;;;3.99;100.00;101859.13;5071752;28;20285;-66
2021/11/16 04:15:47;;;;;;;;;;;;;;;3.96;100.00;101847.66;5071876;28;19978;-66
2021/11/16 04:18:13;;;;;;;;;;;;;;;3.94;100.00;101861.13;5071260;28;19929;-67
2021/11/16 04:20:41;;;;;;;;;;;;;;;3.91;100.00;101858.53;5071965;28;20386;-66
2021/11/16 04:23:10;;;;;;;;;;;;;;;3.95;100.00;101857.50;5071439;28;19929;-66
2021/11/16 04:25:38;;;;;;;;;;;;;;;3.91;100.00;101849.63;5071861;28;20391;-66
2021/11/16 04:28:05;;;;;;;;;;;;;;;3.94;100.00;101846.81;5071434;28;19947;-66
2021/11/16 04:30:31;;;;;;;;;;;;;;;3.96;100.00;101845.81;5071335;28;20011;-66
2021/11/16 04:32:58;;;;;;;;;;;;;;;3.96;100.00;101853.03;5071749;28;20370;-66
2021/11/16 04:35:25;;;;;;;;;;;;;;;3.97;100.00;101846.72;5071383;28;19956;-66
2021/11/16 04:37:53;;;;;;;;;;;;;;;3.98;100.00;101840.38;5071156;28;20016;-66
2021/11/16 04:40:24;;;;;;;;;;;;;;;3.97;100.00;101835.97;5071577;28;19928;-66
2021/11/16 04:42:51;;;;;;;;;;;;;;;3.98;100.00;101840.38;5071572;28;19939;-66
2021/11/16 04:45:21;;;;;;;;;;;;;;;3.97;100.00;101833.28;5071493;28;19932;-66
2021/11/16 04:47:51;;;;;;;;;;;;;;;3.94;100.00;101836.06;5070838;28;19930;-66
2021/11/16 04:50:27;;;;;;;;;;;;;;;3.96;100.00;101823.47;5071579;28;19924;-66
2021/11/16 04:53:02;;;;;;;;;;;;;;;3.97;100.00;101818.03;5071235;28;19986;-66
2021/11/16 04:55:44;;;;;;;;;;;;;;;3.97;100.00;101817.16;5071219;28;19936;-66
2021/11/16 05:03:39;;;;;;;;;;;;;;;4.01;100.00;101813.44;5071382;28;19924;-66
2021/11/16 05:06:05;;;;;;;;;;;;;;;3.97;100.00;101814.47;5071012;28;19924;-66
2021/11/16 05:08:32;;;;;;;;;;;;;;;3.95;100.00;101824.38;5072015;28;19963;-66
2021/11/16 05:10:59;;;;;;;;;;;;;;;3.96;100.00;101829.69;5071130;28;19975;-66
2021/11/16 05:13:26;;;;;;;;;;;;;;;3.95;100.00;101835.13;5069921;28;19931;-66
2021/11/16 05:15:52;;;;;;;;;;;;;;;3.93;100.00;101832.50;5071093;28;20015;-66
2021/11/16 05:18:18;;;;;;;;;;;;;;;3.96;100.00;101837.75;5075062;28;19925;-66
2021/11/16 05:20:44;;;;;;;;;;;;;;;3.97;100.00;101836.84;5075118;28;20023;-65
2021/11/16 05:23:12;;;;;;;;;;;;;;;3.98;100.00;101826.97;5075054;28;20023;-66
2021/11/16 05:25:38;;;;;;;;;;;;;;;3.97;100.00;101833.28;5074103;28;19931;-66
2021/11/16 05:28:07;;;;;;;;;;;;;;;3.96;100.00;101844.97;5074519;28;20473;-66
2021/11/16 05:30:35;;;;;;;;;;;;;;;3.97;100.00;101841.34;5074744;28;19924;-67
2021/11/16 05:33:01;;;;;;;;;;;;;;;4.01;100.00;101851.91;5074883;28;19924;-67
2021/11/16 05:35:28;;;;;;;;;;;;;;;3.96;100.00;101847.66;5074908;28;20023;-66
2021/11/16 05:37:54;;;;;;;;;;;;;;;3.92;100.00;101849.56;5075151;28;20040;-67
2021/11/16 05:40:20;;;;;;;;;;;;;;;3.89;100.00;101843.41;5074670;28;20056;-67
2021/11/16 05:42:46;;;;;;;;;;;;;;;3.91;100.00;101842.41;5075193;28;19924;-67
2021/11/16 05:45:14;;;;;;;;;;;;;;;3.91;100.00;101839.72;5076259;28;20027;-68
2021/11/16 05:47:42;;;;;;;;;;;;;;;3.96;100.00;101845.81;5074973;28;19928;-67
2021/11/16 05:50:09;;;;;;;;;;;;;;;3.99;100.00;101836.78;5074317;28;19976;-67
2021/11/16 05:52:35;;;;;;;;;;;;;;;3.99;100.00;101836.78;5075207;28;19924;-68
2021/11/16 05:55:01;;;;;;;;;;;;;;;3.99;100.00;101843.03;5075258;28;19928;-67
2021/11/16 05:57:28;;;;;;;;;;;;;;;3.97;100.00;101835.97;5077777;28;19969;-67
2021/11/16 05:59:54;;;;;;;;;;;;;;;3.94;100.00;101834.28;5083897;28;19997;-66
2021/11/16 06:02:21;;;;;;;;;;;;;;;3.92;100.00;101827.19;5094977;28;19927;-67
2021/11/16 06:04:48;;;;;;;;;;;;;;;3.92;100.00;101833.44;5094205;28;20008;-67
2021/11/16 06:07:14;;;;;;;;;;;;;;;3.92;100.00;101829.88;5094338;28;20015;-67
2021/11/16 06:09:42;;;;;;;;;;;;;;;3.90;100.00;101839.78;5081301;28;20449;-67
2021/11/16 06:12:10;;;;;;;;;;;;;;;3.90;100.00;101846.06;5088538;28;19928;-67
2021/11/16 06:14:36;;;;;;;;;;;;;;;3.91;100.00;101849.63;5074277;28;20338;-66
2021/11/16 06:17:03;;;;;;;;;;;;;;;3.89;100.00;101846.09;5073386;28;20015;-67
2021/11/16 06:19:34;;;;;;;;;;;;;;;3.89;100.00;101851.47;5078421;28;20015;-68
2021/11/16 06:22:01;;;;;;;;;;;;;;;3.90;100.00;101856.81;5085164;28;20419;-65
2021/11/16 06:24:27;;;;;;;;;;;;;;;3.94;100.00;101868.31;5091305;28;20023;-65
2021/11/16 06:26:53;;;;;;;;;;;;;;;3.96;100.00;101869.13;5085611;28;20034;-66
2021/11/16 06:29:20;;;;;;;;;;;;;;;3.96;100.00;101875.38;5092333;28;20015;-68
2021/11/16 06:31:46;;;;;;;;;;;;;;;3.97;100.00;101870.91;5084072;28;19934;-66
2021/11/16 06:34:13;;;;;;;;;;;;;;;3.96;100.00;101869.13;5092736;28;19993;-66
2021/11/16 06:36:41;;;;;;;;;;;;;;;3.92;100.00;101872.88;5092825;28;19934;-66
2021/11/16 06:39:09;;;;;;;;;;;;;;;3.92;100.00;101867.50;5092121;28;19932;-66
2021/11/16 06:41:35;;;;;;;;;;;;;;;3.94;100.00;101873.69;5080079;28;20015;-68
2021/11/16 06:44:01;;;;;;;;;;;;;;;3.97;100.00;101865.53;5093740;28;20011;-68
2021/11/16 06:46:30;;;;;;;;;;;;;;;3.97;100.00;101871.75;5090180;28;20055;-68
2021/11/16 06:48:57;;;;;;;;;;;;;;;3.98;100.00;101878.91;5093669;28;20266;-68
2021/11/16 06:51:23;;;;;;;;;;;;;;;3.99;100.00;101871.72;5093468;28;20453;-68
2021/11/16 06:53:51;;;;;;;;;;;;;;;3.97;100.00;101884.34;5081164;28;19970;-68
2021/11/16 06:56:17;;;;;;;;;;;;;;;3.96;100.00;101890.63;5091736;28;20026;-67
2021/11/16 06:58:43;;;;;;;;;;;;;;;3.94;100.00;101882.63;5082161;28;20023;-67
2021/11/16 07:01:09;;;;;;;;;;;;;;;3.95;100.00;101887.06;5081830;28;20026;-67
2021/11/16 07:03:36;;;;;;;;;;;;;;;3.99;100.00;101885.16;5093277;28;19930;-67
2021/11/16 07:06:03;;;;;;;;;;;;;;;4.04;100.00;101883.19;5092629;28;20461;-67
2021/11/16 07:08:31;;;;;;;;;;;;;;;4.02;100.00;101880.53;5091115;28;19924;-67
2021/11/16 07:11:04;;;;;;;;;;;;;;;4.01;100.00;101883.28;5092939;28;20454;-67
2021/11/16 07:13:30;;;;;;;;;;;;;;;4.00;100.00;101886.91;5090511;28;19924;-67
2021/11/16 07:15:56;;;;;;;;;;;;;;;3.97;100.00;101893.25;5093164;28;19963;-67
2021/11/16 07:18:22;;;;;;;;;;;;;;;3.97;100.00;101887.88;5092592;28;20270;-67
2021/11/16 07:20:56;;;;;;;;;;;;;;;4.00;100.00;101889.59;5093262;28;20022;-67
2021/11/16 07:23:23;;;;;;;;;;;;;;;3.94;100.00;101890.69;5072306;28;19925;-67
2021/11/16 07:25:50;;;;;;;;;;;;;;;3.93;100.00;101891.63;5072501;28;19930;-67
2021/11/16 07:28:17;;;;;;;;;;;;;;;3.96;100.00;101898.69;5072197;28;20007;-67
2021/11/16 07:30:43;;;;;;;;;;;;;;;3.97;100.00;101901.31;5072042;28;20019;-67
2021/11/16 07:33:11;;;;;;;;;;;;;;;3.98;100.00;101896.81;5072343;28;20039;-67
2021/11/16 07:35:38;;;;;;;;;;;;;;;3.94;100.00;101887.09;5082895;28;20363;-67
2021/11/16 07:38:06;;;;;;;;;;;;;;;3.90;100.00;101888.16;5092722;28;19924;-67
2021/11/16 07:40:33;;;;;;;;;;;;;;;3.90;100.00;101894.41;5087320;28;19924;-67
2021/11/16 07:43:00;;;;;;;;;;;;;;;3.89;100.00;101889.06;5091918;28;19977;-67
2021/11/16 07:45:30;;;;;;;;;;;;;;;3.94;100.00;101892.47;5090011;28;20023;-68
2021/11/16 07:47:57;;;;;;;;;;;;;;;3.91;100.00;101892.59;5079314;28;19993;-67
2021/11/16 07:50:37;;;;;;;;;;;;;;;3.91;100.00;101888.09;5076576;28;20019;-67
2021/11/16 07:53:08;;;;;;;;;;;;;;;3.89;100.00;101891.75;5089499;28;19968;-67
2021/11/16 07:55:34;;;;;;;;;;;;;;;3.90;100.00;101881.00;5084879;28;19982;-68
2021/11/16 07:58:04;;;;;;;;;;;;;;;3.92;100.00;101884.47;5080274;28;19924;-66
2021/11/16 08:00:33;;;;;;;;;;;;;;;3.91;100.00;101887.22;5083733;28;20015;-66
2021/11/16 08:03:03;;;;;;;;;;;;;;;3.92;100.00;101889.84;5092392;28;19989;-67
2021/11/16 08:05:36;;;;;;;;;;;;;;;3.93;100.00;101893.41;5092054;28;20343;-66
2021/11/16 08:08:26;;;;;;;;;;;;;;;3.97;100.00;101897.78;5091932;28;20456;-66
2021/11/16 08:11:05;;;;;;;;;;;;;;;3.97;100.00;101892.41;5083732;28;19931;-66
2021/11/16 08:13:34;;;;;;;;;;;;;;;3.97;100.00;101874.47;5071643;28;20023;-66
2021/11/16 08:16:07;;;;;;;;;;;;;;;4.02;100.00;101875.16;5075290;28;19970;-67
2021/11/16 08:18:41;;;;;;;;;;;;;;;4.04;100.00;101866.19;5080959;28;20401;-67
2021/11/16 08:21:08;;;;;;;;;;;;;;;4.08;100.00;101866.00;5090529;28;19963;-67
2021/11/16 08:23:34;;;;;;;;;;;;;;;4.11;100.00;101865.88;5082176;28;19924;-66
2021/11/16 08:26:00;;;;;;;;;;;;;;;4.09;100.00;101865.09;5088244;28;19924;-66
2021/11/16 08:28:27;;;;;;;;;;;;;;;4.15;100.00;101859.47;5088156;28;19929;-67
2021/11/16 08:30:53;;;;;;;;;;;;;;;4.19;100.00;101850.34;5071421;28;19974;-66
2021/11/16 08:33:21;;;;;;;;;;;;;;;4.27;100.00;101843.84;5071651;28;19943;-66
2021/11/16 08:35:48;;;;;;;;;;;;;;;4.38;100.00;101836.25;5071463;28;19960;-66
2021/11/16 08:38:17;;;;;;;;;;;;;;;4.41;100.00;101830.75;5071550;28;20047;-66
2021/11/16 08:40:45;;;;;;;;;;;;;;;4.45;100.00;101829.72;5071594;28;20345;-66
2021/11/16 08:43:15;;;;;;;;;;;;;;;4.46;100.00;101825.19;5076724;28;20475;-67
2021/11/16 08:45:45;;;;;;;;;;;;;;;4.48;100.00;101821.53;5091316;28;19928;-67
2021/11/16 08:48:13;;;;;;;;;;;;;;;4.59;100.00;101822.94;5091165;28;20450;-66
2021/11/16 08:50:41;;;;;;;;;;;;;;;4.70;100.00;101820.69;5089973;28;20039;-66
2021/11/16 08:53:09;;;;;;;;;;;;;;;4.85;100.00;101814.72;5071159;28;20027;-67
2021/11/16 08:55:37;;;;;;;;;;;;;;;4.93;100.00;101816.19;5071445;28;19960;-66
2021/11/16 08:58:06;;;;;;;;;;;;;;;5.08;100.00;101818.28;5071349;28;19925;-67
2021/11/16 09:00:34;;;;;;;;;;;;;;;5.12;100.00;101816.34;5071247;28;19925;-66
2021/11/16 09:03:03;;;;;;;;;;;;;;;5.14;100.00;101807.25;5090286;28;20006;-67
2021/11/16 09:05:31;;;;;;;;;;;;;;;5.12;100.00;101814.53;5085852;28;20457;-66
2021/11/16 09:08:00;;;;;;;;;;;;;;;5.17;100.00;101807.16;5069696;28;19925;-66
2021/11/16 09:10:32;;;;;;;;;;;;;;;5.22;100.00;101804.25;5070003;28;19925;-66
2021/11/16 09:13:00;;;;;;;;;;;;;;;5.14;100.00;101809.06;5071015;28;20310;-66
2021/11/16 09:15:32;;;;;;;;;;;;;;;5.16;100.00;101813.47;5072025;28;20027;-68
2021/11/16 09:18:07;;;;;;;;;;;;;;;5.18;100.00;101816.97;5090238;28;19967;-67
2021/11/16 09:20:34;;;;;;;;;;;;;;;5.17;100.00;101817.00;5070979;28;19925;-66
2021/11/16 09:23:02;;;;;;;;;;;;;;;5.16;100.00;101816.16;5070696;28;19959;-66
2021/11/16 09:25:30;;;;;;;;;;;;;;;5.32;100.00;101810.16;5070383;28;19952;-66
2021/11/16 09:28:03;;;;;;;;;;;;;;;5.33;100.00;101807.38;5082150;28;20416;-66
2021/11/16 09:30:35;;;;;;;;;;;;;;;5.44;100.00;101793.47;5090898;28;20417;-67
2021/11/16 09:33:04;;;;;;;;;;;;;;;5.32;100.00;101788.59;5086504;28;19974;-67
2021/11/16 09:35:44;;;;;;;;;;;;;;;5.31;100.00;101790.41;5089811;28;19924;-67
2021/11/16 09:38:12;;;;;;;;;;;;;;;5.38;100.00;101782.94;5088438;28;20031;-67
2021/11/16 09:40:38;;;;;;;;;;;;;;;5.35;100.00;101780.38;5090975;28;19965;-68
2021/11/16 09:43:04;;;;;;;;;;;;;;;5.36;100.00;101790.22;5088864;28;19964;-67
2021/11/16 09:45:33;;;;;;;;;;;;;;;5.34;100.00;101784.91;5085424;28;19974;-67
2021/11/16 09:48:02;;;;;;;;;;;;;;;5.36;100.00;101793.78;5075493;28;19974;-66
2021/11/16 09:50:28;;;;;;;;;;;;;;;5.43;100.00;101790.84;5086484;28;20343;-66
2021/11/16 09:52:56;;;;;;;;;;;;;;;5.45;100.00;101789.84;5089417;28;20019;-66
2021/11/16 09:55:28;;;;;;;;;;;;;;;5.42;100.00;101789.09;5090430;28;19951;-66
2021/11/16 09:57:57;;;;;;;;;;;;;;;5.40;100.00;101780.19;5089093;28;20023;-67
2021/11/16 10:00:27;;;;;;;;;;;;;;;5.45;100.00;101780.84;5077532;28;20427;-66
2021/11/16 10:02:55;;;;;;;;;;;;;;;5.48;100.00;101787.00;5090567;28;20012;-66
2021/11/16 10:05:22;;;;;;;;;;;;;;;5.46;100.00;101775.41;5094458;28;20247;-66
2021/11/16 10:07:49;;;;;;;;;;;;;;;5.49;100.00;101780.69;5092494;28;20348;-67
2021/11/16 10:10:16;;;;;;;;;;;;;;;5.53;100.00;101776.00;5093269;28;20095;-67
2021/11/16 10:12:46;;;;;;;;;;;;;;;5.57;100.00;101776.75;5094063;28;20332;-67
2021/11/16 10:15:14;;;;;;;;;;;;;;;5.59;100.00;101774.91;5093636;28;20424;-67
2021/11/16 10:17:40;;;;;;;;;;;;;;;5.67;100.00;101772.72;5093688;28;19939;-67
2021/11/16 10:20:08;;;;;;;;;;;;;;;5.70;100.00;101768.09;5090336;28;20397;-67
2021/11/16 10:22:34;;;;;;;;;;;;;;;5.83;100.00;101762.16;5093657;28;19924;-67
2021/11/16 10:25:11;;;;;;;;;;;;;;;5.95;100.00;101755.34;5093804;28;19981;-67
2021/11/16 10:27:38;;;;;;;;;;;;;;;5.99;100.00;101751.59;5093635;28;19924;-67
2021/11/16 10:30:11;;;;;;;;;;;;;;;5.96;100.00;101759.75;5091035;28;19924;-67
2021/11/16 10:32:37;;;;;;;;;;;;;;;5.80;100.00;101752.38;5073195;28;19930;-67
2021/11/16 10:35:08;;;;;;;;;;;;;;;5.74;100.00;101749.09;5073237;28;19924;-67
2021/11/16 10:37:43;;;;;;;;;;;;;;;5.75;100.00;101753.53;5072976;28;20293;-67
2021/11/16 10:40:09;;;;;;;;;;;;;;;5.84;100.00;101751.31;5074190;28;19978;-67
2021/11/16 10:42:37;;;;;;;;;;;;;;;5.95;100.00;101744.56;5084559;28;19936;-68
2021/11/16 10:45:05;;;;;;;;;;;;;;;6.05;100.00;101751.28;5072391;28;20393;-67
2021/11/16 10:47:36;;;;;;;;;;;;;;;6.05;100.00;101745.91;5073000;28;20011;-67
2021/11/16 10:50:07;;;;;;;;;;;;;;;6.04;100.00;101733.38;5074827;28;19924;-67
2021/11/16 10:52:35;;;;;;;;;;;;;;;5.98;100.00;101734.53;5082879;28;20015;-67
2021/11/16 10:55:02;;;;;;;;;;;;;;;5.95;100.00;101741.88;5080833;28;19928;-67
2021/11/16 10:57:49;;;;;;;;;;;;;;;6.01;100.00;101739.78;5072666;28;20019;-67
2021/11/16 11:00:15;;;;;;;;;;;;;;;6.17;100.00;101725.59;5072848;28;19962;-67
2021/11/16 11:02:43;;;;;;;;;;;;;;;6.18;100.00;101727.34;5072567;28;19931;-67
2021/11/16 11:05:09;;;;;;;;;;;;;;;6.25;100.00;101726.09;5073811;28;20554;-67
2021/11/16 11:07:38;;;;;;;;;;;;;;;6.29;100.00;101733.09;5071341;28;20128;-67
2021/11/16 11:10:05;;;;;;;;;;;;;;;6.26;100.00;101722.47;5071916;28;19928;-68
2021/11/16 11:12:33;;;;;;;;;;;;;;;6.30;100.00;101718.66;5085211;28;20360;-67
2021/11/16 11:14:59;;;;;;;;;;;;;;;6.36;100.00;101722.91;5080302;28;19924;-67
2021/11/16 11:17:32;;;;;;;;;;;;;;;6.40;100.00;101716.44;5072375;28;20300;-67
2021/11/16 11:20:07;;;;;;;;;;;;;;;6.38;100.00;101712.91;5072495;28;20483;-67
2021/11/16 11:22:40;;;;;;;;;;;;;;;6.32;100.00;101716.78;5073528;28;20346;-67
2021/11/16 11:25:10;;;;;;;;;;;;;;;6.44;100.00;101712.63;5072320;28;20314;-67
2021/11/16 11:27:41;;;;;;;;;;;;;;;6.38;100.00;101707.53;5072113;28;19925;-67
2021/11/16 11:30:13;;;;;;;;;;;;;;;6.39;100.00;101705.69;5071860;28;19924;-67
2021/11/16 11:32:41;;;;;;;;;;;;;;;6.44;100.00;101703.66;5075261;28;20010;-67
2021/11/16 11:35:13;;;;;;;;;;;;;;;6.45;100.00;101700.88;5072128;28;19924;-67
2021/11/16 11:37:41;;;;;;;;;;;;;;;6.56;100.00;101694.09;5075888;28;19982;-67
2021/11/16 11:40:09;;;;;;;;;;;;;;;6.50;100.00;101685.34;5078399;28;20157;-67
2021/11/16 11:42:37;;;;;;;;;;;;;;;6.48;100.00;101691.75;5092543;28;20343;-67
2021/11/16 11:45:09;;;;;;;;;;;;;;;6.50;100.00;101684.47;5092127;28;19934;-67
2021/11/16 11:47:36;;;;;;;;;;;;;;;6.54;100.00;101686.94;5091705;28;19924;-67
2021/11/16 11:50:18;;;;;;;;;;;;;;;6.54;100.00;101686.94;5092049;28;20262;-67
2021/11/16 11:52:45;;;;;;;;;;;;;;;6.59;100.00;101680.44;5074139;28;19968;-66
2021/11/16 11:55:12;;;;;;;;;;;;;;;6.54;100.00;101684.25;5088520;28;20042;-68
2021/11/16 11:57:39;;;;;;;;;;;;;;;6.44;100.00;101679.38;5088108;28;20016;-66
2021/11/16 12:00:06;;;;;;;;;;;;;;;6.28;100.00;101676.53;5074604;28;20023;-67
2021/11/16 12:02:35;;;;;;;;;;;;;;;6.25;100.00;101676.69;5071740;28;20266;-67
2021/11/16 12:05:02;;;;;;;;;;;;;;;6.19;100.00;101677.88;5073935;28;20354;-67
2021/11/16 12:07:30;;;;;;;;;;;;;;;6.19;100.00;101675.19;5071342;28;20015;-67
2021/11/16 12:09:58;;;;;;;;;;;;;;;6.21;100.00;101681.34;5071017;28;20509;-67
2021/11/16 12:12:26;;;;;;;;;;;;;;;6.28;100.00;101679.22;5071535;28;19924;-67
2021/11/16 12:14:59;;;;;;;;;;;;;;;6.34;100.00;101673.56;5072651;28;19971;-67
2021/11/16 12:17:28;;;;;;;;;;;;;;;6.26;100.00;101673.91;5071286;28;20344;-67
2021/11/16 12:19:55;;;;;;;;;;;;;;;6.20;100.00;101664.31;5071433;28;20015;-67
2021/11/16 12:22:23;;;;;;;;;;;;;;;6.22;100.00;101666.94;5070897;28;20352;-67
2021/11/16 12:24:51;;;;;;;;;;;;;;;6.22;100.00;101660.69;5070856;28;19924;-67
2021/11/16 12:27:20;;;;;;;;;;;;;;;6.29;100.00;101656.72;5077511;28;20408;-66
2021/11/16 12:29:48;;;;;;;;;;;;;;;6.35;100.00;101646.50;5087234;28;19970;-66
2021/11/16 12:32:16;;;;;;;;;;;;;;;6.42;100.00;101636.28;5072273;28;19985;-67
2021/11/16 12:34:48;;;;;;;;;;;;;;;6.57;100.00;101634.66;5077447;28;19956;-67
2021/11/16 12:37:30;;;;;;;;;;;;;;;6.59;100.00;101630.06;5081880;28;19934;-67
2021/11/16 12:39:57;;;;;;;;;;;;;;;6.53;100.00;101623.16;5071973;28;20026;-67
2021/11/16 12:42:25;;;;;;;;;;;;;;;6.58;100.00;101619.34;5088339;28;19928;-68
2021/11/16 12:44:57;;;;;;;;;;;;;;;6.66;100.00;101619.84;5090148;28;20027;-67